Brisbane, Queensland

8:17 AM EST on August 30, 2014 (GMT +1000)
Wavell Heights | Change Station
CLOSE
Current Station
Personal Weather Station
Location: Wavell Heights, QUEENSLAND
Elevation: 39 ft
Nearby Weather Stations

Elev 39 ft 27.38 °S, 153.05 °E | Updated 15 seconds ago

Clear
Clear
70.0 °F
Feels Like 70.0 °F
N
0.0
Wind Variable Wind from SSW
Gusts 0.0 mph

Today
High -- | Low -- °F
--% Chance of Precip.
Yesterday
High -- | Low -- °F
Precip. -- in
6:03 AM 5:33 PM
Waxing Crescent, 17% visible
Pressure 30.12 in
Visibility -9999.0 miles
Clouds
Dew Point 53 °F
Humidity 54%
Rainfall 0.00 in
Snow Depth Not available.
UV 1.0 out of 12
Pollen Not available.
Air Quality Not available.
Flu Activity Not available.
METAR YBBN 292200Z 22006KT CAVOK 14/10 Q1020 NOSIG

More Conditions Fewer Conditions

Pressure 30.12 in
Visibility -9999.0 miles
Clouds
Dew Point 53 °F
Humidity 54%
Rainfall 0.00 in
Snow Depth Not available.
UV 1.0 out of 12
Pollen Not available.
Air Quality Not available.
Flu Activity Not available.
METAR YBBN 292200Z 22006KT CAVOK 14/10 Q1020 NOSIG

More Conditions Fewer Conditions

10-Day Weather Forecast

Almanac

Astronomy

Aug. 30, 2014 Rise Set
Actual Time 6:03 AM EST 5:33 PM EST
Civil Twilight 5:40 AM EST 5:56 PM EST
Nautical Twilight 5:13 AM EST 6:24 PM EST
Astronomical Twilight 4:46 AM EST 6:51 PM EST
Moon 8:28 AM EST (8/30) 9:34 PM EST (8/30)
Length of Visible Light 12h 16m
Length of Day
11h 29m
Tomorrow will be 1m 31s longer.
Waxing Crescent, 17% of the Moon is Illuminated
Aug 29
Waxing Crescent
Sep 2
First Quarter
Sep 8
Full
Sep 15
Last Quarter
Sep 24
New

Yesterday's Extremes

Country Highs Country Lows

Community

WunderPhotos

Upload Photos

1,748,356 photos uploaded!

Nearby

Snow Depth

Not available.

Earthquake Activity

City Distance Mag. Time & Date
No recent earthquake activity has been reported nearby.
Minimum magnitude displayed is 2.5.

Coastal Water Temperatures

Place Temperature
No Stations Reporting

Nearby Weather Stations